Time;durP1;ratioP1;P1;durP2;ratioP2;P2;SDS_P1;SDS_P2;PMS_P1;PMS_P2;Temp;Humidity;BMP_temperature;BMP_pressure;BME280_temperature;BME280_humidity;BME280_pressure;Samples;Min_cycle;Max_cycle;Signal;HPM_P1;HPM_P2
2022/08/22 00:01:56;;;;;;;8.55;2.17;;;16.10;99.90;;;;;;5090960;28;20141;-55
2022/08/22 00:04:33;;;;;;;9.10;3.03;;;16.10;99.90;;;;;;5081834;28;20052;-58
2022/08/22 00:07:16;;;;;;;5.78;3.03;;;16.10;99.90;;;;;;5083421;28;20040;-56
2022/08/22 00:09:52;;;;;;;4.07;2.25;;;16.10;99.90;;;;;;5074418;28;20040;-56
2022/08/22 00:12:29;;;;;;;14.02;2.40;;;16.10;99.90;;;;;;5091191;28;20254;-57
2022/08/22 00:15:13;;;;;;;5.47;2.25;;;16.10;99.90;;;;;;5091302;28;20044;-58
2022/08/22 00:18:08;;;;;;;7.85;2.30;;;16.10;99.90;;;;;;5091477;28;20074;-58
2022/08/22 00:20:51;;;;;;;5.60;2.47;;;16.10;99.90;;;;;;5083518;28;20060;-56
2022/08/22 00:23:51;;;;;;;4.18;2.03;;;16.10;99.90;;;;;;5090557;28;20047;-56
2022/08/22 00:26:42;;;;;;;2.75;1.70;;;16.10;99.90;;;;;;5091102;28;20124;-56
2022/08/22 00:29:14;;;;;;;5.15;2.10;;;16.10;99.90;;;;;;5090667;28;20055;-56
2022/08/22 00:31:44;;;;;;;5.28;1.85;;;16.00;99.90;;;;;;5090890;28;20043;-56
2022/08/22 00:34:15;;;;;;;6.18;2.28;;;16.00;99.90;;;;;;5082202;28;20044;-56
2022/08/22 00:37:01;;;;;;;5.05;1.48;;;16.00;99.90;;;;;;5090871;28;20048;-56
2022/08/22 00:40:12;;;;;;;3.30;2.28;;;16.00;99.90;;;;;;5090823;28;20063;-55
2022/08/22 00:43:16;;;;;;;3.83;1.63;;;16.00;99.90;;;;;;5062161;28;20064;-55
2022/08/22 00:46:25;;;;;;;4.65;2.28;;;16.00;99.90;;;;;;5055745;28;20052;-55
2022/08/22 00:49:08;;;;;;;3.80;2.10;;;16.00;99.90;;;;;;4979939;28;20066;-55
2022/08/22 00:52:25;;;;;;;8.85;2.22;;;16.00;99.90;;;;;;5067799;28;20064;-57
2022/08/22 00:55:10;;;;;;;2.83;1.75;;;16.00;99.90;;;;;;5035913;28;20509;-56
2022/08/22 00:57:48;;;;;;;3.72;1.52;;;16.00;99.90;;;;;;5070398;28;20052;-56
2022/08/22 01:00:21;;;;;;;2.25;1.63;;;15.90;99.90;;;;;;5068678;28;20412;-61
2022/08/22 01:03:18;;;;;;;4.72;1.70;;;15.90;99.90;;;;;;5071059;28;20384;-60
2022/08/22 01:05:56;;;;;;;4.90;2.65;;;15.90;99.90;;;;;;5090397;28;20047;-60
2022/08/22 01:08:40;;;;;;;2.30;2.00;;;15.90;99.90;;;;;;5090286;28;20051;-58
2022/08/22 01:11:09;;;;;;;;;;;15.80;99.90;;;;;;5073771;28;20131;-55
2022/08/22 01:13:55;;;;;;;4.18;1.88;;;15.80;99.90;;;;;;5069138;28;19924;-55
2022/08/22 01:16:33;;;;;;;4.53;1.92;;;15.80;99.90;;;;;;5078672;28;20102;-55
2022/08/22 01:19:01;;;;;;;7.45;2.70;;;15.80;99.90;;;;;;5089747;28;20494;-55
2022/08/22 01:21:51;;;;;;;5.65;2.20;;;15.90;99.90;;;;;;5089474;28;20382;-55
2022/08/22 01:25:16;;;;;;;4.43;2.17;;;15.90;99.90;;;;;;5089659;28;20126;-55
2022/08/22 01:27:49;;;;;;;6.47;2.60;;;15.90;99.90;;;;;;5088430;28;20577;-55
2022/08/22 01:30:45;;;;;;;3.90;2.45;;;15.90;99.90;;;;;;5090099;28;20083;-56
2022/08/22 01:33:35;;;;;;;6.35;2.83;;;15.90;99.90;;;;;;5089708;28;20063;-56
2022/08/22 01:36:09;;;;;;;4.47;2.42;;;15.90;99.90;;;;;;5089333;28;20490;-57
2022/08/22 01:38:56;;;;;;;4.07;2.50;;;15.90;99.90;;;;;;5089434;28;20051;-55
2022/08/22 01:41:40;;;;;;;5.38;2.88;;;15.90;99.90;;;;;;5084845;28;20119;-57
2022/08/22 01:44:19;;;;;;;4.75;2.72;;;15.90;99.90;;;;;;5069100;28;20113;-56
2022/08/22 01:46:54;;;;;;;4.75;2.30;;;16.00;99.90;;;;;;5069347;28;20504;-55
2022/08/22 01:49:32;;;;;;;5.25;2.58;;;16.00;99.90;;;;;;5088644;28;20152;-56
2022/08/22 01:52:04;;;;;;;5.50;1.65;;;15.90;99.90;;;;;;5089372;28;20048;-57
2022/08/22 01:54:36;;;;;;;3.78;1.70;;;15.90;99.90;;;;;;5086719;28;20124;-56
2022/08/22 01:57:06;;;;;;;2.67;1.67;;;15.90;99.90;;;;;;5089185;28;20092;-55
2022/08/22 02:00:14;;;;;;;3.47;1.48;;;15.90;99.90;;;;;;5088502;28;20043;-55
2022/08/22 02:03:04;;;;;;;6.60;2.53;;;15.90;99.90;;;;;;5074707;28;20478;-56
2022/08/22 02:05:51;;;;;;;3.70;1.80;;;15.90;99.90;;;;;;5089187;28;20401;-55
2022/08/22 02:09:08;;;;;;;3.47;1.95;;;15.80;99.90;;;;;;5089198;28;20101;-56
2022/08/22 02:11:57;;;;;;;4.45;2.20;;;15.80;99.90;;;;;;4990030;28;20066;-55
2022/08/22 02:14:31;;;;;;;4.18;1.92;;;15.80;99.90;;;;;;5006499;28;20088;-55
2022/08/22 02:17:13;;;;;;;3.90;1.88;;;15.80;99.90;;;;;;5048846;28;20089;-55
2022/08/22 02:19:53;;;;;;;3.63;2.00;;;15.80;99.90;;;;;;5068827;28;20040;-55
2022/08/22 02:22:32;;;;;;;3.30;1.48;;;15.80;99.90;;;;;;5068590;28;20036;-56
2022/08/22 02:25:08;;;;;;;3.35;2.15;;;15.70;99.90;;;;;;5079293;28;20047;-57
2022/08/22 02:27:53;;;;;;;3.03;1.80;;;15.70;99.90;;;;;;5088646;28;20555;-55
2022/08/22 02:30:20;;;;;;;;;;;15.70;99.90;;;;;;5089442;28;20063;-55
2022/08/22 02:33:11;;;;;;;6.45;2.42;;;15.70;99.90;;;;;;5088659;28;19924;-55
2022/08/22 02:35:55;;;;;;;4.80;1.98;;;15.60;99.90;;;;;;5088864;28;20047;-59
2022/08/22 02:38:37;;;;;;;5.32;3.13;;;15.60;99.90;;;;;;5088999;28;20055;-59
2022/08/22 02:41:20;;;;;;;6.32;2.38;;;15.50;99.90;;;;;;5070330;28;20053;-57
2022/08/22 02:44:19;;;;;;;2.42;2.00;;;15.50;99.90;;;;;;5088691;28;20401;-58
2022/08/22 02:46:45;;;;;;;5.57;2.58;;;15.40;99.90;;;;;;5047017;28;20052;-59
2022/08/22 02:49:21;;;;;;;6.00;2.50;;;15.40;99.90;;;;;;5088617;28;20084;-56
2022/08/22 02:52:01;;;;;;;3.13;2.17;;;15.40;99.90;;;;;;5088180;28;20446;-57
2022/08/22 02:54:36;;;;;;;6.32;2.20;;;15.40;99.90;;;;;;5088168;28;20040;-59
2022/08/22 02:57:11;;;;;;;4.72;3.08;;;15.40;99.90;;;;;;5088604;28;20098;-57
2022/08/22 03:00:14;;;;;;;4.53;2.45;;;15.40;99.90;;;;;;5088912;28;20083;-56
2022/08/22 03:03:02;;;;;;;3.45;2.33;;;15.40;99.90;;;;;;5092185;28;20670;-56
2022/08/22 03:05:37;;;;;;;5.32;2.55;;;15.40;99.90;;;;;;5090729;28;20155;-55
2022/08/22 03:08:18;;;;;;;2.40;2.10;;;15.30;99.90;;;;;;5091500;28;20136;-56
2022/08/22 03:11:07;;;;;;;2.60;1.73;;;15.30;99.90;;;;;;5083940;28;20251;-55
2022/08/22 03:14:02;;;;;;;2.15;1.52;;;15.30;99.90;;;;;;5090819;28;20095;-55
2022/08/22 03:16:37;;;;;;;7.22;2.58;;;15.30;99.90;;;;;;5055291;28;20044;-55
2022/08/22 03:19:02;;;;;;;5.25;2.22;;;15.20;99.90;;;;;;5091464;28;20497;-55
2022/08/22 03:21:32;;;;;;;7.18;2.72;;;15.20;99.90;;;;;;5092231;28;20090;-55
2022/08/22 03:24:24;;;;;;;3.50;2.15;;;15.20;99.90;;;;;;5092070;28;20094;-55
2022/08/22 03:27:20;;;;;;;5.72;2.58;;;15.20;99.90;;;;;;5092446;28;20141;-55
2022/08/22 03:29:52;;;;;;;4.82;2.50;;;15.10;99.90;;;;;;5091118;28;20119;-56
2022/08/22 03:32:21;;;;;;;5.85;2.67;;;15.10;99.90;;;;;;5081545;28;20493;-55
2022/08/22 03:35:03;;;;;;;5.80;3.13;;;15.10;99.90;;;;;;5086236;28;20062;-57
2022/08/22 03:37:38;;;;;;;5.30;2.78;;;15.10;99.90;;;;;;5080744;28;20059;-58
2022/08/22 03:40:18;;;;;;;5.72;2.60;;;15.00;99.90;;;;;;5085375;28;20490;-57
2022/08/22 03:43:11;;;;;;;3.60;1.85;;;15.10;99.90;;;;;;5079789;28;20092;-57
2022/08/22 03:45:58;;;;;;;4.53;1.98;;;15.00;99.90;;;;;;5081875;28;20052;-55
2022/08/22 03:48:50;;;;;;;1.80;1.40;;;15.00;99.90;;;;;;5080954;28;20505;-56
2022/08/22 03:51:35;;;;;;;2.03;1.55;;;14.90;99.90;;;;;;5071289;28;20123;-60
2022/08/22 03:54:33;;;;;;;2.78;1.90;;;14.90;99.90;;;;;;5071027;28;20048;-60
2022/08/22 03:57:14;;;;;;;2.60;1.67;;;15.00;99.90;;;;;;5071143;28;20099;-62
2022/08/22 04:00:25;;;;;;;2.42;1.15;;;14.90;99.90;;;;;;5071418;28;20080;-59
2022/08/22 04:03:15;;;;;;;3.97;1.40;;;14.90;99.90;;;;;;5055012;28;20052;-59
2022/08/22 04:06:07;;;;;;;4.80;3.45;;;14.90;99.90;;;;;;5073021;28;20045;-60
2022/08/22 04:08:38;;;;;;;3.58;1.70;;;14.90;99.90;;;;;;5070717;28;20043;-59
2022/08/22 04:11:35;;;;;;;6.47;2.75;;;14.90;99.90;;;;;;5084252;28;20676;-59
2022/08/22 04:14:23;;;;;;;3.10;2.03;;;14.90;99.90;;;;;;5090734;28;20140;-60
2022/08/22 04:17:25;;;;;;;3.25;2.45;;;14.90;99.90;;;;;;5091199;28;20123;-58
2022/08/22 04:20:19;;;;;;;3.85;2.00;;;14.80;99.90;;;;;;5070974;28;20040;-59
2022/08/22 04:23:06;;;;;;;6.05;2.97;;;14.80;99.90;;;;;;5070354;28;20143;-59
2022/08/22 04:25:37;;;;;;;3.47;2.25;;;14.90;99.90;;;;;;5070637;28;20048;-60
2022/08/22 04:28:19;;;;;;;3.53;1.85;;;14.90;99.90;;;;;;5070250;28;20573;-60
2022/08/22 04:31:11;;;;;;;3.25;2.40;;;14.90;99.90;;;;;;5071081;28;20577;-60
2022/08/22 04:34:05;;;;;;;6.10;3.05;;;14.90;99.90;;;;;;5084563;28;20458;-61
2022/08/22 04:36:47;;;;;;;5.20;2.90;;;15.00;99.90;;;;;;5105038;28;20052;-60
2022/08/22 04:39:21;;;;;;;4.00;2.53;;;15.00;99.90;;;;;;5109283;28;20113;-56
2022/08/22 04:41:52;;;;;;;3.58;2.67;;;15.10;99.90;;;;;;5103569;28;20512;-56
2022/08/22 04:44:41;;;;;;;4.35;2.88;;;15.10;99.90;;;;;;5090663;28;20569;-57
2022/08/22 04:47:32;;;;;;;3.33;2.97;;;15.20;99.90;;;;;;5088150;28;20491;-56
2022/08/22 04:50:14;;;;;;;5.40;3.08;;;15.30;99.90;;;;;;5090671;28;20048;-57
2022/08/22 04:52:42;;;;;;;6.47;3.60;;;15.30;99.90;;;;;;5069819;28;20051;-55
2022/08/22 04:55:50;;;;;;;7.53;3.25;;;15.30;99.90;;;;;;5069841;28;20495;-55
2022/08/22 04:58:18;;;;;;;7.43;3.00;;;15.40;99.90;;;;;;5068022;28;20071;-55
2022/08/22 05:01:02;;;;;;;4.63;3.58;;;15.40;99.90;;;;;;5069831;28;20086;-55
2022/08/22 05:03:30;;;;;;;4.87;3.63;;;15.50;99.90;;;;;;5087193;28;20353;-56
2022/08/22 05:06:00;;;;;;;9.25;5.20;;;15.50;99.90;;;;;;5090189;28;20416;-55
2022/08/22 05:08:31;;;;;;;6.50;3.72;;;15.60;99.90;;;;;;5090356;28;20052;-55
2022/08/22 05:10:58;;;;;;;6.50;3.45;;;15.60;99.90;;;;;;5076626;28;20059;-55
2022/08/22 05:13:31;;;;;;;5.93;3.40;;;15.60;99.90;;;;;;5069470;28;20061;-56
2022/08/22 05:16:04;;;;;;;3.10;2.75;;;15.60;99.90;;;;;;5075207;28;20076;-55
2022/08/22 05:18:39;;;;;;;4.95;3.40;;;15.70;99.90;;;;;;5068430;28;20105;-56
2022/08/22 05:21:09;;;;;;;5.03;3.42;;;15.70;99.90;;;;;;5068270;28;20052;-57
2022/08/22 05:23:42;;;;;;;6.03;3.70;;;15.80;99.90;;;;;;5069179;28;20114;-55
2022/08/22 05:26:11;;;;;;;9.97;4.00;;;15.80;99.90;;;;;;5069831;28;20036;-55
2022/08/22 05:28:53;;;;;;;8.43;4.53;;;15.90;99.90;;;;;;5069559;28;20074;-56
2022/08/22 05:31:33;;;;;;;6.78;3.83;;;16.00;99.90;;;;;;5073074;28;20055;-56
2022/08/22 05:34:13;;;;;;;11.73;4.35;;;16.10;99.90;;;;;;5079464;28;20309;-57
2022/08/22 05:36:52;;;;;;;6.82;3.58;;;16.20;99.90;;;;;;5102121;28;20101;-56
2022/08/22 05:39:21;;;;;;;11.25;5.18;;;16.30;99.90;;;;;;5069123;28;20510;-56
2022/08/22 05:41:49;;;;;;;7.22;4.45;;;16.40;99.90;;;;;;5076700;28;20044;-56
2022/08/22 05:44:33;;;;;;;7.10;3.30;;;16.40;99.90;;;;;;5089592;28;20131;-57
2022/08/22 05:47:00;;;;;;;7.93;4.60;;;16.60;99.90;;;;;;5089793;28;20792;-59
2022/08/22 05:49:39;;;;;;;7.43;4.88;;;16.70;99.90;;;;;;5089206;28;20852;-60
2022/08/22 05:52:07;;;;;;;6.50;4.82;;;16.80;99.90;;;;;;5088738;28;20516;-61
2022/08/22 05:54:51;;;;;;;8.65;5.00;;;16.90;99.90;;;;;;5089491;28;20046;-59
2022/08/22 05:57:29;;;;;;;10.80;5.50;;;16.90;99.90;;;;;;5089738;28;20044;-55
2022/08/22 06:00:09;;;;;;;5.65;4.35;;;17.10;99.90;;;;;;5076182;28;20048;-57
2022/08/22 06:03:05;;;;;;;6.97;4.38;;;17.10;99.90;;;;;;5068462;28;20087;-56
2022/08/22 06:05:35;;;;;;;10.73;5.18;;;17.20;99.90;;;;;;5069008;28;20040;-56
2022/08/22 06:08:16;;;;;;;11.32;5.75;;;17.30;99.90;;;;;;5084631;28;20506;-55
2022/08/22 06:10:46;;;;;;;9.52;4.75;;;17.40;99.90;;;;;;5076007;28;20052;-55
2022/08/22 06:13:14;;;;;;;12.15;5.20;;;17.50;99.90;;;;;;5068635;28;20056;-55
2022/08/22 06:16:16;;;;;;;7.40;5.18;;;17.60;99.90;;;;;;5071439;28;20056;-59
2022/08/22 06:18:44;;;;;;;10.77;5.82;;;17.70;99.90;;;;;;5089138;28;20398;-55
2022/08/22 06:21:21;;;;;;;8.45;4.15;;;17.90;99.90;;;;;;5084644;28;20059;-57
2022/08/22 06:23:55;;;;;;;11.48;5.47;;;18.00;99.90;;;;;;5089069;28;20048;-58
2022/08/22 06:26:23;;;;;;;9.95;5.03;;;18.20;99.90;;;;;;5069907;28;20426;-57
2022/08/22 06:28:53;;;;;;;12.68;4.60;;;18.20;99.90;;;;;;5067886;28;20407;-55
2022/08/22 06:31:22;;;;;;;7.43;4.05;;;17.90;99.90;;;;;;5070958;28;20709;-57
2022/08/22 06:34:12;;;;;;;7.68;4.45;;;18.50;99.90;;;;;;5048914;28;20121;-56
2022/08/22 06:36:40;;;;;;;9.82;4.07;;;18.60;99.90;;;;;;5099177;28;20470;-55
2022/08/22 06:39:24;;;;;;;8.10;4.30;;;18.60;99.90;;;;;;5083425;28;20406;-55
2022/08/22 06:42:00;;;;;;;7.10;5.22;;;18.80;99.90;;;;;;5080264;28;20043;-55
2022/08/22 06:44:43;;;;;;;11.05;4.32;;;18.80;99.90;;;;;;5090567;28;20577;-55
2022/08/22 06:47:17;;;;;;;6.22;3.72;;;18.90;99.90;;;;;;5092584;28;20099;-55
2022/08/22 06:49:44;;;;;;;7.10;4.10;;;19.00;99.90;;;;;;5070703;28;20060;-56
2022/08/22 06:52:16;;;;;;;5.57;3.55;;;19.20;99.90;;;;;;5087903;28;20446;-57
2022/08/22 06:54:45;;;;;;;11.73;4.97;;;19.30;99.90;;;;;;5079649;28;20057;-55
2022/08/22 06:57:43;;;;;;;9.40;5.68;;;19.30;99.90;;;;;;5071793;28;20487;-55
2022/08/22 07:00:13;;;;;;;9.88;3.80;;;19.40;99.90;;;;;;5074351;28;20051;-56
2022/08/22 07:02:45;;;;;;;11.98;5.18;;;19.50;99.90;;;;;;5076401;28;20097;-61
2022/08/22 07:05:18;;;;;;;6.85;3.67;;;19.50;99.90;;;;;;5089206;28;20533;-61
2022/08/22 07:07:44;;;;;;;10.95;3.50;;;19.50;99.90;;;;;;5091845;28;20044;-60
2022/08/22 07:10:15;;;;;;;10.02;3.92;;;19.60;99.90;;;;;;5079064;28;20468;-57
2022/08/22 07:12:48;;;;;;;7.70;3.58;;;19.70;99.90;;;;;;5091586;28;20064;-61
2022/08/22 07:15:34;;;;;;;9.80;4.45;;;19.80;99.90;;;;;;5085963;28;20440;-59
2022/08/22 07:18:03;;;;;;;13.20;4.82;;;19.80;99.90;;;;;;5071365;28;20452;-60
2022/08/22 07:20:46;;;;;;;5.68;3.20;;;19.90;99.90;;;;;;5071875;28;20045;-55
2022/08/22 07:23:46;;;;;;;5.50;2.30;;;20.00;99.90;;;;;;5071407;28;20502;-57
2022/08/22 07:26:40;;;;;;;9.65;3.33;;;20.10;99.90;;;;;;5071560;28;20104;-56
2022/08/22 07:29:21;;;;;;;9.27;2.92;;;20.10;99.90;;;;;;5069057;28;20083;-55
2022/08/22 07:32:13;;;;;;;7.43;2.53;;;20.30;99.90;;;;;;5070240;28;20497;-56
2022/08/22 07:35:01;;;;;;;11.23;4.00;;;20.40;99.90;;;;;;5052964;28;20056;-55
2022/08/22 07:37:39;;;;;;;6.07;3.75;;;20.60;99.90;;;;;;5083585;28;20048;-58
2022/08/22 07:40:10;;;;;;;8.25;3.42;;;20.70;99.90;;;;;;5088414;28;20162;-60
2022/08/22 07:42:47;;;;;;;15.73;5.45;;;20.70;99.90;;;;;;5077492;28;20437;-58
2022/08/22 07:45:32;;;;;;;11.77;4.25;;;20.70;99.90;;;;;;5071179;28;20044;-56
2022/08/22 07:48:35;;;;;;;9.38;3.90;;;20.80;99.90;;;;;;5070759;28;20044;-60
2022/08/22 07:51:01;;;;;;;7.07;4.13;;;20.90;99.90;;;;;;5071087;28;20056;-57
2022/08/22 07:53:43;;;;;;;7.82;3.88;;;21.10;99.90;;;;;;5071235;28;20169;-61
2022/08/22 07:56:18;;;;;;;9.65;3.80;;;21.00;99.90;;;;;;5071627;28;20053;-58
2022/08/22 07:58:47;;;;;;;10.10;3.80;;;21.00;99.90;;;;;;5091410;28;20402;-59
2022/08/22 08:01:19;;;;;;;5.18;2.78;;;21.20;99.90;;;;;;5070177;28;20052;-59
2022/08/22 08:04:11;;;;;;;7.65;3.08;;;21.20;99.90;;;;;;5070897;28;20517;-62
2022/08/22 08:06:37;;;;;;;11.85;2.97;;;21.30;99.90;;;;;;5070355;28;20048;-61
2022/08/22 08:09:03;;;;;;;6.45;3.15;;;21.30;99.90;;;;;;5086256;28;20133;-62
2022/08/22 08:11:34;;;;;;;5.63;3.40;;;21.40;99.90;;;;;;5072810;28;20052;-59
2022/08/22 08:14:04;;;;;;;5.95;2.80;;;21.60;99.90;;;;;;5069015;28;20056;-55
2022/08/22 08:16:48;;;;;;;5.32;2.53;;;21.60;99.90;;;;;;5082992;28;20032;-57
2022/08/22 08:19:16;;;;;;;10.10;2.88;;;21.70;99.90;;;;;;5088782;28;20649;-58
2022/08/22 08:21:53;;;;;;;7.30;2.10;;;21.70;99.90;;;;;;5075524;28;20040;-59
2022/08/22 08:24:24;;;;;;;5.20;2.30;;;21.90;99.90;;;;;;5067483;28;20059;-59
2022/08/22 08:29:53;;;;;;;6.25;2.15;;;22.40;99.90;;;;;;5069330;28;20584;-58
2022/08/22 08:32:21;;;;;;;8.25;2.72;;;22.50;99.90;;;;;;5085671;28;20083;-58
2022/08/22 08:34:47;;;;;;;11.82;3.50;;;22.70;99.90;;;;;;5084455;28;20130;-56
2022/08/22 08:37:32;;;;;;;8.55;2.35;;;22.80;99.90;;;;;;5074032;28;20047;-58
2022/08/22 08:40:00;;;;;;;7.70;2.65;;;23.30;99.90;;;;;;5074598;28;20036;-58
2022/08/22 08:45:45;;;;;;;6.47;2.53;;;23.70;99.90;;;;;;5065845;28;20051;-58
2022/08/22 08:48:17;;;;;;;10.25;2.47;;;23.90;99.90;;;;;;5067404;28;20052;-58
2022/08/22 08:51:15;;;;;;;6.13;2.25;;;23.90;99.90;;;;;;5066951;28;20063;-57
2022/08/22 08:54:02;;;;;;;8.63;3.03;;;24.40;99.90;;;;;;5021278;28;20064;-56
2022/08/22 08:56:40;;;;;;;6.07;2.20;;;24.60;99.90;;;;;;5066686;28;20088;-56
2022/08/22 08:59:41;;;;;;;6.22;2.08;;;24.60;99.90;;;;;;5066377;28;20923;-58
2022/08/22 09:02:26;;;;;;;4.47;2.30;;;24.90;99.90;;;;;;5051821;28;20113;-58
2022/08/22 09:05:14;;;;;;;3.17;1.70;;;24.80;99.90;;;;;;5081892;28;20355;-58
2022/08/22 09:07:48;;;;;;;6.47;2.08;;;24.80;99.90;;;;;;5085245;28;20104;-57
2022/08/22 09:10:44;;;;;;;10.05;2.88;;;24.90;99.90;;;;;;5074005;28;20162;-57
2022/08/22 09:13:16;;;;;;;8.23;2.42;;;25.00;99.90;;;;;;5070306;28;20057;-58
2022/08/22 09:15:59;;;;;;;6.57;2.08;;;25.10;99.90;;;;;;5066084;28;20095;-58
2022/08/22 09:18:37;;;;;;;7.55;2.47;;;25.40;99.90;;;;;;5080590;28;20039;-58
2022/08/22 09:21:13;;;;;;;5.72;2.45;;;25.90;99.90;;;;;;5084489;28;20513;-58
2022/08/22 09:24:00;;;;;;;5.25;2.25;;;26.40;99.90;;;;;;5082029;28;20059;-58
2022/08/22 09:26:45;;;;;;;8.30;2.75;;;26.80;99.90;;;;;;5067351;28;20425;-58
2022/08/22 09:29:47;;;;;;;10.60;2.45;;;27.00;99.90;;;;;;5081236;28;20082;-55
2022/08/22 09:32:45;;;;;;;6.32;2.17;;;27.00;99.90;;;;;;5081824;28;20402;-57
2022/08/22 09:35:43;;;;;;;7.47;2.47;;;26.80;99.90;;;;;;5082280;28;20048;-56
2022/08/22 09:38:33;;;;;;;7.90;2.65;;;26.90;99.90;;;;;;5069877;28;20124;-56
2022/08/22 09:41:13;;;;;;;10.65;3.53;;;26.90;99.90;;;;;;5071443;28;20044;-56
2022/08/22 09:43:50;;;;;;;10.90;3.58;;;26.80;99.90;;;;;;5081984;28;20048;-56
2022/08/22 09:46:24;;;;;;;19.77;4.43;;;27.10;99.90;;;;;;5067434;28;20850;-55
2022/08/22 09:49:05;;;;;;;7.90;2.78;;;27.60;99.90;;;;;;5066108;28;20047;-55
2022/08/22 09:51:43;;;;;;;7.38;2.08;;;27.90;99.90;;;;;;5074554;28;20462;-56
2022/08/22 09:54:43;;;;;;;8.27;2.92;;;28.10;99.90;;;;;;5077708;28;20047;-57
2022/08/22 09:57:23;;;;;;;6.82;2.22;;;28.10;99.90;;;;;;5081916;28;20047;-56
2022/08/22 10:00:00;;;;;;;9.25;2.50;;;27.80;99.90;;;;;;5065453;28;20053;-56
2022/08/22 10:02:53;;;;;;;8.68;2.47;;;27.60;99.90;;;;;;5065353;28;20075;-56
2022/08/22 10:05:45;;;;;;;6.18;1.80;;;27.50;99.90;;;;;;5064168;28;20051;-56
2022/08/22 10:08:21;;;;;;;6.95;1.92;;;27.20;99.90;;;;;;5071781;28;20098;-56
2022/08/22 10:11:17;;;;;;;4.63;1.80;;;27.20;99.90;;;;;;5072168;28;20118;-56
2022/08/22 10:14:07;;;;;;;6.95;2.05;;;27.40;99.90;;;;;;5062568;28;20769;-57
2022/08/22 10:16:36;;;;;;;2.63;1.50;;;27.50;99.90;;;;;;5074810;28;20048;-56
2022/08/22 10:19:36;;;;;;;3.17;2.00;;;28.00;99.90;;;;;;5085137;28;20537;-56
2022/08/22 10:22:16;;;;;;;4.00;2.17;;;28.20;99.30;;;;;;5084446;28;20051;-56
2022/08/22 10:24:45;;;;;;;4.28;2.00;;;27.90;99.90;;;;;;5081282;28;20044;-55
2022/08/22 10:27:19;;;;;;;6.65;2.42;;;28.00;99.90;;;;;;5074231;28;20056;-56
2022/08/22 10:30:12;;;;;;;4.65;1.45;;;28.00;99.90;;;;;;5066745;28;20105;-57
2022/08/22 10:33:07;;;;;;;8.75;2.53;;;28.00;99.10;;;;;;5077600;28;20050;-56
2022/08/22 10:35:42;;;;;;;12.90;2.83;;;27.80;99.40;;;;;;5082350;28;20052;-59
2022/08/22 10:38:46;;;;;;;8.18;2.08;;;27.80;99.90;;;;;;5085372;28;20051;-57
2022/08/22 10:41:35;;;;;;;4.88;2.17;;;27.90;99.70;;;;;;5067838;28;20044;-58
2022/08/22 10:44:59;;;;;;;7.70;3.00;;;27.70;99.80;;;;;;5084812;28;20122;-58
2022/08/22 10:47:57;;;;;;;6.20;2.03;;;28.10;99.30;;;;;;5001330;28;20128;-58
2022/08/22 10:50:39;;;;;;;8.48;2.17;;;28.20;99.10;;;;;;5001185;28;20914;-59
2022/08/22 10:53:42;;;;;;;2.67;1.42;;;28.10;99.60;;;;;;5070212;28;20060;-58
2022/08/22 10:56:26;;;;;;;5.97;1.70;;;28.10;99.30;;;;;;5081387;28;20047;-59
2022/08/22 10:59:19;;;;;;;6.55;1.75;;;28.00;99.00;;;;;;5074110;28;20514;-59
2022/08/22 11:02:13;;;;;;;6.80;1.83;;;28.20;98.90;;;;;;5078988;28;20051;-58
2022/08/22 11:04:48;;;;;;;10.52;2.95;;;28.30;99.30;;;;;;5082978;28;20498;-57
2022/08/22 11:07:58;;;;;;;4.70;1.83;;;28.00;98.30;;;;;;5083058;28;20048;-56
2022/08/22 11:11:00;;;;;;;5.65;2.00;;;28.70;98.10;;;;;;5074717;28;20127;-56
2022/08/22 11:13:31;;;;;;;4.60;1.80;;;28.90;99.20;;;;;;5079811;28;20525;-56
2022/08/22 11:16:18;;;;;;;5.63;2.17;;;28.90;98.80;;;;;;5084111;28;20056;-57
2022/08/22 11:19:04;;;;;;;7.00;2.25;;;28.70;97.80;;;;;;5081795;28;20079;-58
2022/08/22 11:21:56;;;;;;;5.68;2.03;;;29.00;98.40;;;;;;5084612;28;20048;-55
2022/08/22 11:25:00;;;;;;;7.47;1.92;;;29.10;97.50;;;;;;5068142;28;20406;-60
2022/08/22 11:27:37;;;;;;;6.82;2.38;;;29.60;97.40;;;;;;5067946;28;20109;-59
2022/08/22 11:30:05;;;;;;;4.38;1.98;;;29.40;97.70;;;;;;5068375;28;20040;-59
2022/08/22 11:32:35;;;;;;;5.40;2.22;;;29.90;97.10;;;;;;5067919;28;20498;-60
2022/08/22 11:35:35;;;;;;;9.35;2.70;;;29.80;96.20;;;;;;5076439;28;20047;-61
2022/08/22 11:38:17;;;;;;;6.97;3.08;;;30.40;95.70;;;;;;5059245;28;20517;-55
2022/08/22 11:41:18;;;;;;;5.07;1.90;;;30.40;96.10;;;;;;5068832;28;20233;-56
2022/08/22 11:44:02;;;;;;;6.53;1.88;;;30.40;96.40;;;;;;5005738;28;20052;-55
2022/08/22 11:46:30;;;;;;;4.22;1.60;;;30.30;95.50;;;;;;5063186;28;20048;-56
2022/08/22 11:49:26;;;;;;;6.00;3.05;;;30.50;96.10;;;;;;5068509;28;20052;-56
2022/08/22 11:52:06;;;;;;;2.85;1.50;;;29.90;95.30;;;;;;5074118;28;20083;-56
2022/08/22 11:55:14;;;;;;;5.85;1.63;;;29.90;95.00;;;;;;5076489;28;20048;-56
2022/08/22 11:57:49;;;;;;;4.93;1.90;;;29.70;95.10;;;;;;5043599;28;20430;-58
2022/08/22 12:00:28;;;;;;;7.28;2.00;;;29.30;95.20;;;;;;5073179;28;20043;-56
2022/08/22 12:03:32;;;;;;;7.32;2.08;;;29.70;95.40;;;;;;5087492;28;20517;-57
2022/08/22 12:06:14;;;;;;;4.45;1.50;;;30.10;94.90;;;;;;5084562;28;20056;-56
2022/08/22 12:08:48;;;;;;;6.03;1.90;;;30.30;94.90;;;;;;5071288;28;20048;-57
2022/08/22 12:11:31;;;;;;;4.10;2.10;;;30.40;94.60;;;;;;5083912;28;20048;-56
2022/08/22 12:14:40;;;;;;;7.63;2.00;;;30.50;93.50;;;;;;5081961;28;20523;-57
2022/08/22 12:17:23;;;;;;;4.60;1.55;;;30.30;93.70;;;;;;5050633;28;20118;-56
2022/08/22 12:20:21;;;;;;;4.68;1.83;;;29.70;95.00;;;;;;5082646;28;20059;-57
2022/08/22 12:22:56;;;;;;;4.43;1.75;;;29.30;94.20;;;;;;5076351;28;20049;-55
2022/08/22 12:25:49;;;;;;;4.60;1.63;;;29.30;94.60;;;;;;5073398;28;20051;-56
2022/08/22 12:28:27;;;;;;;6.05;2.00;;;29.30;94.10;;;;;;5072975;28;20115;-56
2022/08/22 12:31:16;;;;;;;5.80;1.88;;;30.00;94.70;;;;;;5076792;28;20133;-58
2022/08/22 12:34:07;;;;;;;3.17;1.35;;;29.50;93.80;;;;;;5070241;28;20067;-58
2022/08/22 12:36:54;;;;;;;2.85;1.63;;;29.30;94.10;;;;;;5071535;28;20716;-56
2022/08/22 12:39:41;;;;;;;5.22;1.13;;;29.60;92.80;;;;;;5066788;28;20075;-59
2022/08/22 12:42:12;;;;;;;5.90;1.60;;;29.50;93.20;;;;;;5082733;28;20071;-55
2022/08/22 12:45:21;;;;;;;5.30;1.35;;;29.70;93.20;;;;;;5087221;28;20048;-56
2022/08/22 12:48:23;;;;;;;3.30;1.27;;;29.30;93.10;;;;;;5086766;28;20150;-56
2022/08/22 12:51:17;;;;;;;5.13;1.63;;;29.30;93.00;;;;;;5082321;28;20056;-56
2022/08/22 12:54:01;;;;;;;6.75;2.63;;;29.00;93.20;;;;;;5067138;28;20045;-56
2022/08/22 12:56:50;;;;;;;3.60;1.83;;;30.20;93.80;;;;;;5065587;28;20059;-56
2022/08/22 12:59:29;;;;;;;5.28;1.77;;;30.20;93.10;;;;;;5080122;28;20044;-55
2022/08/22 13:01:59;;;;;;;8.32;1.80;;;31.50;92.60;;;;;;5084492;28;20059;-56
2022/08/22 13:04:32;;;;;;;12.10;2.95;;;31.70;92.00;;;;;;5084918;28;20055;-56
2022/08/22 13:07:19;;;;;;;6.20;2.13;;;32.30;92.40;;;;;;5087197;28;20051;-56
2022/08/22 13:10:16;;;;;;;4.88;1.83;;;32.10;91.80;;;;;;5082493;28;20052;-56
2022/08/22 13:12:48;;;;;;;6.43;2.28;;;31.80;91.20;;;;;;5060508;28;20166;-58
2022/08/22 13:15:30;;;;;;;4.20;1.98;;;31.50;91.60;;;;;;5071158;28;20083;-59
2022/08/22 13:17:58;;;;;;;6.68;1.40;;;31.80;91.90;;;;;;5081327;28;20137;-57
2022/08/22 13:20:37;;;;;;;8.43;1.90;;;31.70;92.40;;;;;;5066153;28;20102;-58
2022/08/22 13:23:16;;;;;;;5.45;1.90;;;31.90;91.50;;;;;;5066308;28;20113;-58
2022/08/22 13:26:09;;;;;;;6.47;1.50;;;31.60;91.60;;;;;;5065301;28;20108;-58
2022/08/22 13:29:15;;;;;;;4.70;1.85;;;31.10;91.80;;;;;;5066132;28;20060;-58
2022/08/22 13:31:43;;;;;;;3.13;1.63;;;31.30;92.30;;;;;;5053631;28;20052;-56
2022/08/22 13:34:33;;;;;;;7.07;1.40;;;31.90;92.60;;;;;;5066412;28;20094;-58
2022/08/22 13:37:02;;;;;;;3.35;1.60;;;31.10;92.50;;;;;;5063291;28;20052;-59
2022/08/22 13:39:41;;;;;;;6.88;2.03;;;31.10;92.70;;;;;;5063711;28;20056;-56
2022/08/22 13:42:14;;;;;;;3.75;1.77;;;30.90;92.10;;;;;;5075239;28;20048;-56
2022/08/22 13:44:42;;;;;;;;;;;31.00;93.10;;;;;;5085025;28;20439;-56
2022/08/22 13:47:21;;;;;;;4.32;1.60;;;30.80;93.00;;;;;;5074013;28;20043;-56
2022/08/22 13:49:50;;;;;;;5.10;2.10;;;31.10;93.00;;;;;;5075162;28;20118;-59
2022/08/22 13:52:33;;;;;;;5.35;2.53;;;30.80;92.70;;;;;;5072103;28;20068;-59
2022/08/22 13:55:18;;;;;;;5.37;2.27;;;30.40;92.30;;;;;;5072801;28;20071;-58
2022/08/22 13:57:48;;;;;;;6.63;2.00;;;29.70;92.20;;;;;;5073315;28;20050;-57
2022/08/22 14:00:17;;;;;;;5.30;1.75;;;30.40;93.00;;;;;;5072928;28;20114;-63
2022/08/22 14:03:11;;;;;;;4.40;1.63;;;32.00;92.50;;;;;;5069698;28;20071;-57
2022/08/22 14:05:56;;;;;;;7.78;2.20;;;33.30;91.40;;;;;;5072681;28;20063;-60
2022/08/22 14:08:33;;;;;;;3.97;1.42;;;35.00;90.50;;;;;;5071522;28;20119;-56
2022/08/22 14:11:01;;;;;;;4.35;2.20;;;35.60;90.10;;;;;;5081359;28;20183;-56